createdAt,value
2023-01-13T00:02:02.355Z,98885.94
2023-01-13T00:04:34.118Z,98885.94
2023-01-13T00:07:05.787Z,98882.31
2023-01-13T00:09:37.643Z,98883.91
2023-01-13T00:12:10.796Z,98888.22
2023-01-13T00:14:42.665Z,98875.22
2023-01-13T00:17:14.352Z,98888.22
2023-01-13T00:19:48.948Z,98879.31
2023-01-13T00:22:20.616Z,98882.09
2023-01-13T00:24:52.334Z,98876.00
2023-01-13T00:27:25.022Z,98875.38
2023-01-13T00:29:56.719Z,98884.13
2023-01-13T00:32:28.725Z,98882.94
2023-01-13T00:35:00.465Z,98868.75
2023-01-13T00:37:32.153Z,98866.28
2023-01-13T00:40:07.720Z,98866.81
2023-01-13T00:42:58.270Z,98861.22
2023-01-13T00:45:29.959Z,98857.25
2023-01-13T00:48:01.616Z,98847.72
2023-01-13T00:50:33.334Z,98857.78
2023-01-13T00:53:05.005Z,98860.72
2023-01-13T00:55:36.720Z,98842.75
2023-01-13T00:58:08.429Z,98843.72
2023-01-13T01:00:40.188Z,98842.53
2023-01-13T01:03:12.361Z,98827.53
2023-01-13T01:05:44.098Z,98844.00
2023-01-13T01:08:15.792Z,98832.47
2023-01-13T01:10:47.592Z,98837.56
2023-01-13T01:13:19.266Z,98836.56
2023-01-13T01:15:50.997Z,98831.47
2023-01-13T01:18:22.696Z,98825.19
2023-01-13T01:20:54.412Z,98832.94
2023-01-13T01:23:27.823Z,98829.28
2023-01-13T01:26:04.255Z,98817.91
2023-01-13T01:28:35.931Z,98820.56
2023-01-13T01:31:17.220Z,98822.38
2023-01-13T01:33:50.075Z,98813.47
2023-01-13T01:36:26.274Z,98818.41
2023-01-13T01:38:59.399Z,98817.56
2023-01-13T01:41:35.194Z,98817.38
2023-01-13T01:44:25.493Z,98813.47
2023-01-13T01:47:00.607Z,98810.00
2023-01-13T01:49:35.351Z,98809.66
2023-01-13T01:52:06.881Z,98806.00
2023-01-13T01:54:54.020Z,98803.34
2023-01-13T01:57:57.783Z,98800.09
2023-01-13T02:00:29.959Z,98797.63
2023-01-13T02:03:03.315Z,98788.91
2023-01-13T02:05:35.647Z,98786.44
2023-01-13T02:08:11.975Z,98780.97
2023-01-13T02:10:47.165Z,98781.16
2023-01-13T02:13:20.371Z,98775.06
2023-01-13T02:16:01.662Z,98783.44
2023-01-13T02:18:36.059Z,98778.50
2023-01-13T02:21:33.523Z,98783.78
2023-01-13T02:24:53.975Z,98786.44
2023-01-13T02:27:51.671Z,98793.19
2023-01-13T02:30:52.267Z,98784.44
2023-01-13T02:33:47.464Z,98774.44
2023-01-13T02:36:54.399Z,98782.69
2023-01-13T02:39:50.600Z,98772.13
2023-01-13T02:42:58.819Z,98771.78
2023-01-13T02:46:06.268Z,98766.69
2023-01-13T02:48:39.773Z,98764.69
2023-01-13T02:51:19.010Z,98757.78
2023-01-13T02:54:17.402Z,98756.41
2023-01-13T02:56:53.427Z,98751.69
2023-01-13T02:59:27.939Z,98749.88
2023-01-13T03:02:01.180Z,98737.13
2023-01-13T03:05:05.919Z,98737.66
2023-01-13T03:08:08.617Z,98718.84
2023-01-13T03:10:54.669Z,98730.69
2023-01-13T03:13:54.004Z,98732.31
2023-01-13T03:16:31.259Z,98728.69
2023-01-13T03:19:05.501Z,98720.56
2023-01-13T03:22:01.893Z,98711.00
2023-01-13T03:24:39.069Z,98720.94
2023-01-13T03:28:01.600Z,98722.38
2023-01-13T03:30:42.090Z,98721.41
2023-01-13T03:33:29.001Z,98720.03
2023-01-13T03:36:06.182Z,98722.66
2023-01-13T03:38:42.855Z,98706.38
2023-01-13T03:41:34.017Z,98708.69
2023-01-13T03:44:24.572Z,98708.03
2023-01-13T03:47:01.287Z,98708.47
2023-01-13T03:49:53.370Z,98705.00
2023-01-13T03:52:30.484Z,98700.94
2023-01-13T03:55:11.870Z,98697.56
2023-01-13T03:58:16.308Z,98692.28
2023-01-13T04:01:16.987Z,98692.47
2023-01-13T04:04:01.503Z,98692.72
2023-01-13T04:06:47.716Z,98691.09
2023-01-13T04:09:36.794Z,98693.94
2023-01-13T04:12:13.097Z,98693.72
2023-01-13T04:14:46.277Z,98693.94
2023-01-13T04:17:18.627Z,98692.13
2023-01-13T04:19:50.313Z,98705.09
2023-01-13T04:22:22.028Z,98699.66
2023-01-13T04:24:53.711Z,98706.94
2023-01-13T04:27:25.433Z,98700.34
2023-01-13T04:29:57.091Z,98709.25
2023-01-13T04:32:28.893Z,98704.41
2023-01-13T04:35:00.567Z,98696.31
2023-01-13T04:37:32.228Z,98701.59
2023-01-13T04:40:04.473Z,98697.50
2023-01-13T04:42:36.270Z,98699.34
2023-01-13T04:45:09.320Z,98705.22
2023-01-13T04:47:42.015Z,98697.97
2023-01-13T04:50:14.164Z,98701.03
2023-01-13T04:52:47.264Z,98685.75
2023-01-13T04:55:21.075Z,98697.97
2023-01-13T04:57:53.015Z,98703.59
2023-01-13T05:00:24.674Z,98697.31
2023-01-13T05:02:56.463Z,98694.84
2023-01-13T05:05:29.961Z,98694.06
2023-01-13T05:08:02.081Z,98685.50
2023-01-13T05:10:33.885Z,98686.47
2023-01-13T05:13:24.395Z,98692.59
2023-01-13T05:16:06.718Z,98707.75
2023-01-13T05:18:38.564Z,98699.00
2023-01-13T05:21:30.233Z,98702.19
2023-01-13T05:24:20.493Z,98700.22
2023-01-13T05:26:52.233Z,98696.19
2023-01-13T05:29:23.955Z,98691.41
2023-01-13T05:31:55.611Z,98689.97
2023-01-13T05:34:27.404Z,98689.78
2023-01-13T05:36:59.097Z,98682.03
2023-01-13T05:39:50.699Z,98679.66
2023-01-13T05:42:41.060Z,98673.94
2023-01-13T05:45:12.921Z,98680.88
2023-01-13T05:47:44.639Z,98690.22
2023-01-13T05:50:17.041Z,98685.13
2023-01-13T05:52:48.688Z,98676.38
2023-01-13T05:55:20.407Z,98681.03
2023-01-13T05:57:52.090Z,98689.56
2023-01-13T06:00:23.921Z,98684.28
2023-01-13T06:02:55.645Z,98685.63
2023-01-13T06:05:28.458Z,98693.63
2023-01-13T06:08:02.730Z,98690.38
2023-01-13T06:10:35.213Z,98696.22
2023-01-13T06:13:06.914Z,98699.03
2023-01-13T06:15:38.710Z,98699.09
2023-01-13T06:18:10.499Z,98696.44
2023-01-13T06:20:42.271Z,98701.38
2023-01-13T06:23:14.249Z,98697.28
2023-01-13T06:26:09.876Z,98701.09
2023-01-13T06:28:43.996Z,98697.09
2023-01-13T06:31:18.247Z,98701.38
2023-01-13T06:33:56.185Z,98707.66
2023-01-13T06:36:40.321Z,98701.19
2023-01-13T06:39:17.702Z,98706.28
2023-01-13T06:42:12.159Z,98710.41
2023-01-13T06:44:45.572Z,98714.03
2023-01-13T06:47:17.918Z,98705.84
2023-01-13T06:49:50.881Z,98704.03
2023-01-13T06:52:23.586Z,98708.09
2023-01-13T06:54:55.245Z,98706.84
2023-01-13T06:57:26.894Z,98711.56
2023-01-13T06:59:58.575Z,98708.31
2023-01-13T07:02:30.408Z,98696.94
2023-01-13T07:05:02.124Z,98697.09
2023-01-13T07:07:33.883Z,98705.84
2023-01-13T07:10:09.689Z,98700.19
2023-01-13T07:13:00.086Z,98709.09
2023-01-13T07:15:31.979Z,98702.66
2023-01-13T07:18:06.513Z,98704.28
2023-01-13T07:20:38.176Z,98709.56
2023-01-13T07:23:09.858Z,98717.84
2023-01-13T07:25:41.526Z,98715.03
2023-01-13T07:28:13.281Z,98713.38
2023-01-13T07:30:44.989Z,98712.75
2023-01-13T07:33:18.489Z,98716.84
2023-01-13T07:35:57.549Z,98718.31
2023-01-13T07:38:30.640Z,98720.13
2023-01-13T07:41:21.098Z,98711.22
2023-01-13T07:43:52.910Z,98715.22
2023-01-13T07:46:24.557Z,98701.47
2023-01-13T07:48:56.265Z,98699.41
2023-01-13T07:51:27.945Z,98705.88
2023-01-13T07:53:59.631Z,98693.66
2023-01-13T07:56:31.673Z,98696.47
2023-01-13T07:59:03.916Z,98706.28
2023-01-13T08:01:35.676Z,98695.50
2023-01-13T08:04:10.004Z,98701.53
2023-01-13T08:06:42.079Z,98693.97
2023-01-13T08:09:13.906Z,98699.88
2023-01-13T08:12:05.528Z,98709.44
2023-01-13T08:14:37.255Z,98699.13
2023-01-13T08:17:12.325Z,98690.97
2023-01-13T08:19:44.031Z,98695.22
2023-01-13T08:22:16.064Z,98691.88
2023-01-13T08:24:47.804Z,98702.72
2023-01-13T08:27:20.503Z,98695.81
2023-01-13T08:29:52.372Z,98690.81
2023-01-13T08:32:24.026Z,98694.03
2023-01-13T08:34:55.754Z,98690.13
2023-01-13T08:37:27.449Z,98690.66
2023-01-13T08:39:59.567Z,98695.41
2023-01-13T08:42:34.121Z,98692.78
2023-01-13T08:45:07.450Z,98687.06
2023-01-13T08:47:39.100Z,98715.69
2023-01-13T08:50:13.039Z,98714.84
2023-01-13T08:52:45.169Z,98720.97
2023-01-13T08:55:16.951Z,98719.94
2023-01-13T08:57:48.773Z,98723.75
2023-01-13T09:00:21.049Z,98722.63
2023-01-13T09:02:52.755Z,98717.88
2023-01-13T09:05:24.724Z,98700.72
2023-01-13T09:07:56.648Z,98715.28
2023-01-13T09:10:28.453Z,98714.81
2023-01-13T09:13:12.156Z,98726.34
2023-01-13T09:15:45.919Z,98715.44
2023-01-13T09:18:17.724Z,98721.63
2023-01-13T09:20:49.407Z,98712.09
2023-01-13T09:23:21.090Z,98717.63
2023-01-13T09:25:52.999Z,98721.41
2023-01-13T09:28:24.654Z,98710.81
2023-01-13T09:31:01.138Z,98702.72
2023-01-13T09:33:51.682Z,98711.09
2023-01-13T09:36:23.374Z,98713.28
2023-01-13T09:38:55.047Z,98710.91
2023-01-13T09:41:47.848Z,98703.44
2023-01-13T09:44:57.517Z,98702.41
2023-01-13T09:47:45.796Z,98693.72
2023-01-13T09:50:41.226Z,98687.75
2023-01-13T09:53:17.840Z,98692.78
2023-01-13T09:55:49.658Z,98682.09
2023-01-13T09:58:21.584Z,98680.34
2023-01-13T10:00:56.008Z,98677.41
2023-01-13T10:03:30.276Z,98683.88
2023-01-13T10:06:04.577Z,98670.00
2023-01-13T10:08:41.438Z,98663.88
2023-01-13T10:11:40.651Z,98663.56
2023-01-13T10:14:23.169Z,98657.53
2023-01-13T10:17:07.698Z,98663.25
2023-01-13T10:19:51.114Z,98658.59
2023-01-13T10:22:40.224Z,98650.47
2023-01-13T10:25:34.623Z,98647.72
2023-01-13T10:28:14.342Z,98659.06
2023-01-13T10:30:47.714Z,98641.59
2023-01-13T10:33:25.779Z,98641.75
2023-01-13T10:36:12.681Z,98640.50
2023-01-13T10:38:48.241Z,98641.72
2023-01-13T10:41:23.891Z,98645.19
2023-01-13T10:44:00.842Z,98652.00
2023-01-13T10:46:35.774Z,98650.97
2023-01-13T10:49:27.838Z,98646.47
2023-01-13T10:52:01.933Z,98638.72
2023-01-13T10:54:35.761Z,98632.97
2023-01-13T10:57:36.270Z,98641.13
2023-01-13T11:00:30.069Z,98643.72
2023-01-13T11:03:35.720Z,98652.28
2023-01-13T11:06:08.825Z,98645.53
2023-01-13T11:08:45.873Z,98640.66
2023-01-13T11:11:39.349Z,98637.94
2023-01-13T11:14:41.943Z,98641.59
2023-01-13T11:17:32.312Z,98636.88
2023-01-13T11:20:29.698Z,98632.41
2023-01-13T11:23:08.251Z,98641.97
2023-01-13T11:25:44.674Z,98637.25
2023-01-13T11:28:51.338Z,98633.38
2023-01-13T11:31:30.210Z,98634.41
2023-01-13T11:34:35.880Z,98633.34
2023-01-13T11:37:17.975Z,98628.63
2023-01-13T11:39:58.088Z,98625.94
2023-01-13T11:42:43.367Z,98623.72
2023-01-13T11:45:16.935Z,98624.72
2023-01-13T11:47:52.369Z,98622.25
2023-01-13T11:50:27.320Z,98621.22
2023-01-13T11:53:30.296Z,98624.66
2023-01-13T11:56:25.060Z,98628.94
2023-01-13T11:58:56.716Z,98625.28
2023-01-13T12:01:43.581Z,98625.47
2023-01-13T12:04:27.724Z,98627.72
2023-01-13T12:07:12.764Z,98612.47
2023-01-13T12:10:03.751Z,98604.34
2023-01-13T12:13:17.397Z,98620.88
2023-01-13T12:16:07.025Z,98622.13
2023-01-13T12:18:56.724Z,98624.59
2023-01-13T12:21:34.032Z,98627.66
2023-01-13T12:24:24.101Z,98635.59
2023-01-13T12:27:01.753Z,98636.59
2023-01-13T12:29:35.624Z,98633.97
2023-01-13T12:32:14.391Z,98632.94
2023-01-13T12:35:06.219Z,98633.38
2023-01-13T12:37:50.049Z,98628.50
2023-01-13T12:40:40.156Z,98631.41
2023-01-13T12:43:39.000Z,98628.16
2023-01-13T12:46:19.597Z,98633.25
2023-01-13T12:48:56.251Z,98629.78
2023-01-13T12:51:33.300Z,98642.59
2023-01-13T12:54:29.972Z,98638.47
2023-01-13T12:57:01.904Z,98644.56
2023-01-13T12:59:35.736Z,98654.72
2023-01-13T13:02:10.567Z,98655.91
2023-01-13T13:04:55.219Z,98679.91
2023-01-13T13:07:29.812Z,98677.41
2023-01-13T13:10:10.834Z,98696.13
2023-01-13T13:13:00.924Z,98709.19
2023-01-13T13:15:35.490Z,98716.88
2023-01-13T13:18:23.809Z,98730.25
2023-01-13T13:21:05.214Z,98741.88
2023-01-13T13:23:39.346Z,98747.91
2023-01-13T13:26:17.013Z,98729.25
2023-01-13T13:29:12.837Z,98727.19
2023-01-13T13:31:55.275Z,98723.38
2023-01-13T13:34:45.146Z,98723.72
2023-01-13T13:38:12.179Z,98702.16
2023-01-13T13:41:05.959Z,98671.09
2023-01-13T13:44:01.199Z,98676.69
2023-01-13T13:46:46.913Z,98688.78
2023-01-13T13:49:21.274Z,98695.94
2023-01-13T13:52:04.412Z,98695.94
2023-01-13T13:54:39.511Z,98726.53
2023-01-13T13:57:24.666Z,98707.25
2023-01-13T13:59:58.410Z,98700.03
2023-01-13T14:02:34.570Z,98704.19
2023-01-13T14:05:30.874Z,98709.19
2023-01-13T14:08:15.465Z,98702.81
2023-01-13T14:10:47.338Z,98715.56
2023-01-13T14:13:20.650Z,98722.00
2023-01-13T14:16:06.611Z,98743.31
2023-01-13T14:18:51.233Z,98743.66
2023-01-13T14:21:28.622Z,98750.03
2023-01-13T14:24:15.144Z,98748.75
2023-01-13T14:26:51.858Z,98751.75
2023-01-13T14:29:24.461Z,98754.38
2023-01-13T14:31:56.150Z,98759.66
2023-01-13T14:34:32.686Z,98761.31
2023-01-13T14:37:23.177Z,98773.88
2023-01-13T14:39:55.451Z,98775.19
2023-01-13T14:42:28.643Z,98783.19
2023-01-13T14:45:00.817Z,98786.81
2023-01-13T14:47:34.080Z,98785.19
2023-01-13T14:50:07.595Z,98779.25
2023-01-13T14:52:55.649Z,98793.44
2023-01-13T14:55:38.579Z,98791.34
2023-01-13T14:58:24.379Z,98791.81
2023-01-13T15:01:36.423Z,98775.69
2023-01-13T15:04:26.187Z,98767.31
2023-01-13T15:06:59.611Z,98770.94
2023-01-13T15:09:42.291Z,98777.69
2023-01-13T15:12:37.875Z,98777.31
2023-01-13T15:15:19.280Z,98780.94
2023-01-13T15:17:51.784Z,98780.16
2023-01-13T15:20:24.926Z,98770.78
2023-01-13T15:22:59.657Z,98771.75
2023-01-13T15:25:35.434Z,98771.13
2023-01-13T15:28:15.702Z,98775.63
2023-01-13T15:30:49.288Z,98798.38
2023-01-13T15:33:22.237Z,98798.53
2023-01-13T15:35:54.714Z,98797.38
2023-01-13T15:38:26.501Z,98813.38
2023-01-13T15:40:58.348Z,98813.06
2023-01-13T15:43:48.523Z,98825.44
2023-01-13T15:46:38.467Z,98823.13
2023-01-13T15:49:35.159Z,98827.94
2023-01-13T15:52:25.202Z,98835.03
2023-01-13T15:54:57.106Z,98835.38
2023-01-13T15:57:30.902Z,98835.25
2023-01-13T16:00:08.248Z,98848.91
2023-01-13T16:02:39.973Z,98849.75
2023-01-13T16:05:12.426Z,98860.94
2023-01-13T16:07:44.114Z,98863.94
2023-01-13T16:10:17.338Z,98865.09
2023-01-13T16:12:49.411Z,98872.34
2023-01-13T16:15:25.945Z,98866.75
2023-01-13T16:18:00.039Z,98864.13
2023-01-13T16:20:31.886Z,98866.00
2023-01-13T16:23:03.759Z,98878.66
2023-01-13T16:25:36.560Z,98883.47
2023-01-13T16:28:21.982Z,98887.91
2023-01-13T16:30:54.307Z,98894.81
2023-01-13T16:33:28.881Z,98898.59
2023-01-13T16:36:10.638Z,98889.88
2023-01-13T16:38:48.131Z,98893.69
2023-01-13T16:41:20.919Z,98897.13
2023-01-13T16:43:52.929Z,98916.06
2023-01-13T16:46:27.101Z,98909.34
2023-01-13T16:49:04.727Z,98917.91
2023-01-13T16:51:36.581Z,98929.09
2023-01-13T16:54:08.317Z,98934.53
2023-01-13T16:56:40.080Z,98938.34
2023-01-13T16:59:14.949Z,98945.56
2023-01-13T17:01:50.376Z,98939.63
2023-01-13T17:04:23.499Z,98935.03
2023-01-13T17:07:03.469Z,98944.22
2023-01-13T17:09:35.200Z,98939.31
2023-01-13T17:12:06.960Z,98948.88
2023-01-13T17:14:43.436Z,98951.34
2023-01-13T17:17:26.145Z,98958.41
2023-01-13T17:19:57.801Z,98961.19
2023-01-13T17:22:32.395Z,98959.56
2023-01-13T17:25:04.593Z,98961.69
2023-01-13T17:27:36.392Z,98970.59
2023-01-13T17:30:09.842Z,98980.63
2023-01-13T17:32:41.999Z,98992.63
2023-01-13T17:35:18.855Z,98993.44
2023-01-13T17:37:54.316Z,99003.81
2023-01-13T17:40:26.055Z,99005.41
2023-01-13T17:42:57.802Z,99006.72
2023-01-13T17:45:29.961Z,99012.16
2023-01-13T17:48:01.879Z,99014.44
2023-01-13T17:50:34.455Z,99016.25
2023-01-13T17:53:06.142Z,99021.53
2023-01-13T17:55:37.842Z,99024.16
2023-01-13T17:58:09.565Z,99021.66
2023-01-13T18:00:41.753Z,99028.59
2023-01-13T18:03:17.380Z,99038.13
2023-01-13T18:05:49.440Z,99043.03
2023-01-13T18:08:23.625Z,99047.63
2023-01-13T18:10:57.845Z,99049.44
2023-01-13T18:13:31.479Z,99065.53
2023-01-13T18:16:08.518Z,99062.41
2023-01-13T18:18:42.249Z,99071.75
2023-01-13T18:21:43.512Z,99064.19
2023-01-13T18:24:35.291Z,99059.56
2023-01-13T18:27:23.928Z,99053.66
2023-01-13T18:29:58.491Z,99053.13
2023-01-13T18:32:33.409Z,99052.16
2023-01-13T18:35:10.210Z,99043.63
2023-01-13T18:37:45.096Z,99044.25
2023-01-13T18:40:16.905Z,99060.78
2023-01-13T18:42:51.284Z,99063.28
2023-01-13T18:45:30.221Z,99065.72
2023-01-13T18:48:04.175Z,99072.91
2023-01-13T18:50:35.957Z,99073.06
2023-01-13T18:53:08.090Z,99072.72
2023-01-13T18:55:39.944Z,99082.19
2023-01-13T18:58:12.064Z,99078.75
2023-01-13T19:00:44.182Z,99079.75
2023-01-13T19:03:29.520Z,99085.28
2023-01-13T19:06:04.751Z,99083.81
2023-01-13T19:08:36.702Z,99081.34
2023-01-13T19:11:08.391Z,99077.22
2023-01-13T19:13:40.032Z,99085.56
2023-01-13T19:16:11.806Z,99086.84
2023-01-13T19:18:43.955Z,99097.50
2023-01-13T19:21:16.123Z,99092.41
2023-01-13T19:23:47.775Z,99100.06
2023-01-13T19:26:19.844Z,99087.41
2023-01-13T19:28:51.625Z,99108.41
2023-01-13T19:31:23.339Z,99109.03
2023-01-13T19:33:55.255Z,99124.94
2023-01-13T19:36:27.078Z,99121.50
2023-01-13T19:38:59.145Z,99123.31
2023-01-13T19:41:49.108Z,99123.31
2023-01-13T19:44:39.345Z,99130.19
2023-01-13T19:47:11.056Z,99128.78
2023-01-13T19:49:43.091Z,99127.13
2023-01-13T19:52:15.027Z,99119.06
2023-01-13T19:54:47.239Z,99116.75
2023-01-13T19:57:20.314Z,99129.56
2023-01-13T19:59:52.385Z,99125.47
2023-01-13T20:02:31.716Z,99135.50
2023-01-13T20:05:06.587Z,99134.69
2023-01-13T20:07:38.509Z,99140.75
2023-01-13T20:10:10.469Z,99150.28
2023-01-13T20:12:42.737Z,99156.00
2023-01-13T20:15:14.801Z,99169.16
2023-01-13T20:17:46.448Z,99169.78
2023-01-13T20:20:20.403Z,99176.06
2023-01-13T20:22:52.230Z,99168.31
2023-01-13T20:25:24.147Z,99166.66
2023-01-13T20:27:56.573Z,99173.56
2023-01-13T20:30:31.388Z,99162.75
2023-01-13T20:33:02.985Z,99170.81
2023-01-13T20:35:34.797Z,99173.25
2023-01-13T20:38:06.524Z,99168.97
2023-01-13T20:40:38.164Z,99167.16
2023-01-13T20:43:10.357Z,99170.63
2023-01-13T20:45:42.065Z,99167.84
2023-01-13T20:48:13.762Z,99167.50
2023-01-13T20:50:45.737Z,99171.09
2023-01-13T20:53:17.410Z,99167.78
2023-01-13T20:55:49.143Z,99167.25
2023-01-13T20:58:20.810Z,99174.47
2023-01-13T21:00:58.110Z,99178.88
2023-01-13T21:03:29.916Z,99168.09
2023-01-13T21:06:01.695Z,99175.81
2023-01-13T21:08:33.498Z,99179.28
2023-01-13T21:11:06.043Z,99172.50
2023-01-13T21:13:56.435Z,99183.16
2023-01-13T21:16:28.320Z,99179.72
2023-01-13T21:19:10.643Z,99191.34
2023-01-13T21:21:42.478Z,99191.41
2023-01-13T21:24:14.222Z,99201.09
2023-01-13T21:26:46.430Z,99188.13
2023-01-13T21:29:18.149Z,99201.25
2023-01-13T21:31:49.887Z,99196.66
2023-01-13T21:34:21.593Z,99204.41
2023-01-13T21:36:53.254Z,99205.38
2023-01-13T21:39:25.382Z,99202.09
2023-01-13T21:42:15.680Z,99205.53
2023-01-13T21:45:06.071Z,99209.78
2023-01-13T21:47:50.394Z,99196.50
2023-01-13T21:50:27.974Z,99202.44
2023-01-13T21:52:59.714Z,99212.00
2023-01-13T21:55:32.438Z,99215.44
2023-01-13T21:58:13.049Z,99217.25
2023-01-13T22:00:44.946Z,99219.56
2023-01-13T22:03:18.564Z,99229.53
2023-01-13T22:05:55.972Z,99232.16
2023-01-13T22:08:29.166Z,99237.84
2023-01-13T22:11:02.755Z,99243.41
2023-01-13T22:13:52.979Z,99241.47
2023-01-13T22:16:24.881Z,99251.28
2023-01-13T22:18:56.531Z,99254.72
2023-01-13T22:21:28.197Z,99255.09
2023-01-13T22:24:00.232Z,99247.91
2023-01-13T22:26:34.824Z,99243.63
2023-01-13T22:29:06.500Z,99243.50
2023-01-13T22:31:38.299Z,99247.09
2023-01-13T22:34:12.344Z,99253.00
2023-01-13T22:36:44.099Z,99248.75
2023-01-13T22:39:15.800Z,99259.06
2023-01-13T22:41:47.528Z,99258.81
2023-01-13T22:44:20.270Z,99261.72
2023-01-13T22:46:52.362Z,99268.47
2023-01-13T22:49:24.146Z,99267.66
2023-01-13T22:51:55.839Z,99268.34
2023-01-13T22:54:27.522Z,99276.03
2023-01-13T22:56:59.320Z,99274.41
2023-01-13T22:59:31.896Z,99276.72
2023-01-13T23:02:03.721Z,99274.78
2023-01-13T23:04:35.482Z,99278.06
2023-01-13T23:07:07.204Z,99277.94
2023-01-13T23:09:38.885Z,99283.88
2023-01-13T23:12:10.568Z,99288.81
2023-01-13T23:14:42.278Z,99292.13
2023-01-13T23:17:13.914Z,99294.06
2023-01-13T23:19:45.569Z,99300.00
2023-01-13T23:22:17.212Z,99299.56
2023-01-13T23:24:48.980Z,99303.41
2023-01-13T23:27:20.692Z,99298.28
2023-01-13T23:29:52.351Z,99297.03
2023-01-13T23:32:24.019Z,99303.25
2023-01-13T23:34:55.696Z,99299.50
2023-01-13T23:37:27.514Z,99291.59
2023-01-13T23:39:59.148Z,99295.75
2023-01-13T23:42:30.981Z,99301.00
2023-01-13T23:45:02.913Z,99299.34
2023-01-13T23:47:34.850Z,99303.63
2023-01-13T23:50:06.793Z,99308.59
2023-01-13T23:52:38.458Z,99297.91
2023-01-13T23:55:10.236Z,99299.28
2023-01-13T23:57:42.741Z,99300.25
